Terminal Aerodrome Forecast
Issued by NWS Sterling, VA

Home | Current Version | Previous Version | Text Only | Print | Product List | Glossary On
Versions: 1 2 3 4 5 6 7 8 9 10 11 12 13 14 15 16 17 18 19 20 21 22 23 24 25
000
FTUS41 KLWX 180534
TAFIAD
TAF
KIAD 180534Z 1806/1912 33004KT P6SM FEW060 BKN200
     FM180900 35004KT P6SM SCT050
     FM181100 34004KT P6SM SCT250
     FM190700 02008KT P6SM FEW250=

USA.gov is the U.S. government's official web portal to all federal, state and local government web resources and services.